sensor_id;sensor_type;location;lat;lon;timestamp;P1;durP1;ratioP1;P2;durP2;ratioP2
15536;SDS011;7870;52.448;13.270;2023-02-11T00:01:12;49.30;;;34.72;;
15536;SDS011;7870;52.448;13.270;2023-02-11T00:03:47;50.58;;;34.92;;
15536;SDS011;7870;52.448;13.270;2023-02-11T00:06:14;52.72;;;34.30;;
15536;SDS011;7870;52.448;13.270;2023-02-11T00:08:41;46.95;;;34.90;;
15536;SDS011;7870;52.448;13.270;2023-02-11T00:11:09;45.92;;;32.45;;
15536;SDS011;7870;52.448;13.270;2023-02-11T00:13:38;49.85;;;33.90;;
15536;SDS011;7870;52.448;13.270;2023-02-11T00:16:05;50.63;;;33.90;;
15536;SDS011;7870;52.448;13.270;2023-02-11T00:18:33;49.42;;;34.67;;
15536;SDS011;7870;52.448;13.270;2023-02-11T00:21:04;53.17;;;33.67;;
15536;SDS011;7870;52.448;13.270;2023-02-11T00:23:31;49.38;;;35.38;;
15536;SDS011;7870;52.448;13.270;2023-02-11T00:25:57;46.20;;;32.10;;
15536;SDS011;7870;52.448;13.270;2023-02-11T00:28:24;50.58;;;33.70;;
15536;SDS011;7870;52.448;13.270;2023-02-11T00:30:54;46.42;;;32.05;;
15536;SDS011;7870;52.448;13.270;2023-02-11T00:35:49;50.65;;;34.25;;
15536;SDS011;7870;52.448;13.270;2023-02-11T00:38:16;48.22;;;32.17;;
15536;SDS011;7870;52.448;13.270;2023-02-11T00:40:42;49.10;;;34.17;;
15536;SDS011;7870;52.448;13.270;2023-02-11T00:43:09;50.00;;;32.35;;
15536;SDS011;7870;52.448;13.270;2023-02-11T00:45:36;45.63;;;30.35;;
15536;SDS011;7870;52.448;13.270;2023-02-11T00:48:05;44.67;;;31.55;;
15536;SDS011;7870;52.448;13.270;2023-02-11T00:50:31;47.53;;;32.60;;
15536;SDS011;7870;52.448;13.270;2023-02-11T00:52:58;45.33;;;31.95;;
15536;SDS011;7870;52.448;13.270;2023-02-11T00:55:24;43.50;;;33.13;;
15536;SDS011;7870;52.448;13.270;2023-02-11T00:57:51;48.75;;;33.72;;
15536;SDS011;7870;52.448;13.270;2023-02-11T01:00:17;42.60;;;32.00;;
15536;SDS011;7870;52.448;13.270;2023-02-11T01:02:44;46.83;;;31.95;;
15536;SDS011;7870;52.448;13.270;2023-02-11T01:05:11;47.53;;;31.52;;
15536;SDS011;7870;52.448;13.270;2023-02-11T01:07:37;46.95;;;33.30;;
15536;SDS011;7870;52.448;13.270;2023-02-11T01:10:04;47.80;;;32.95;;
15536;SDS011;7870;52.448;13.270;2023-02-11T01:12:31;44.65;;;31.38;;
15536;SDS011;7870;52.448;13.270;2023-02-11T01:15:01;44.13;;;30.83;;
15536;SDS011;7870;52.448;13.270;2023-02-11T01:17:28;42.92;;;30.75;;
15536;SDS011;7870;52.448;13.270;2023-02-11T01:19:54;43.45;;;31.30;;
15536;SDS011;7870;52.448;13.270;2023-02-11T01:22:21;48.15;;;32.55;;
15536;SDS011;7870;52.448;13.270;2023-02-11T01:24:47;43.25;;;32.30;;
15536;SDS011;7870;52.448;13.270;2023-02-11T01:27:14;39.10;;;26.42;;
15536;SDS011;7870;52.448;13.270;2023-02-11T01:29:40;43.50;;;30.15;;
15536;SDS011;7870;52.448;13.270;2023-02-11T01:32:07;46.42;;;30.48;;
15536;SDS011;7870;52.448;13.270;2023-02-11T01:34:33;42.92;;;31.08;;
15536;SDS011;7870;52.448;13.270;2023-02-11T01:37:00;41.47;;;29.05;;
15536;SDS011;7870;52.448;13.270;2023-02-11T01:39:27;40.88;;;29.42;;
15536;SDS011;7870;52.448;13.270;2023-02-11T01:41:54;39.75;;;30.05;;
15536;SDS011;7870;52.448;13.270;2023-02-11T01:46:53;40.05;;;29.30;;
15536;SDS011;7870;52.448;13.270;2023-02-11T01:49:26;42.60;;;31.25;;
15536;SDS011;7870;52.448;13.270;2023-02-11T01:52:02;43.97;;;31.33;;
15536;SDS011;7870;52.448;13.270;2023-02-11T01:54:32;41.95;;;30.02;;
15536;SDS011;7870;52.448;13.270;2023-02-11T01:57:20;38.15;;;29.58;;
15536;SDS011;7870;52.448;13.270;2023-02-11T02:00:06;46.25;;;30.63;;
15536;SDS011;7870;52.448;13.270;2023-02-11T02:05:22;43.63;;;32.45;;
15536;SDS011;7870;52.448;13.270;2023-02-11T02:10:45;40.97;;;30.40;;
15536;SDS011;7870;52.448;13.270;2023-02-11T02:13:15;46.13;;;30.90;;
15536;SDS011;7870;52.448;13.270;2023-02-11T02:15:49;45.08;;;32.38;;
15536;SDS011;7870;52.448;13.270;2023-02-11T02:23:58;42.20;;;31.27;;
15536;SDS011;7870;52.448;13.270;2023-02-11T02:26:52;43.47;;;30.85;;
15536;SDS011;7870;52.448;13.270;2023-02-11T02:32:30;41.90;;;32.67;;
15536;SDS011;7870;52.448;13.270;2023-02-11T02:40:47;45.10;;;32.92;;
15536;SDS011;7870;52.448;13.270;2023-02-11T02:43:16;45.95;;;31.58;;
15536;SDS011;7870;52.448;13.270;2023-02-11T02:45:43;46.60;;;32.70;;
15536;SDS011;7870;52.448;13.270;2023-02-11T02:48:26;47.03;;;32.53;;
15536;SDS011;7870;52.448;13.270;2023-02-11T02:51:00;45.58;;;32.30;;
15536;SDS011;7870;52.448;13.270;2023-02-11T02:56:17;46.80;;;33.58;;
15536;SDS011;7870;52.448;13.270;2023-02-11T02:58:54;46.47;;;35.70;;
15536;SDS011;7870;52.448;13.270;2023-02-11T03:01:33;50.35;;;34.13;;
15536;SDS011;7870;52.448;13.270;2023-02-11T03:07:01;45.70;;;34.38;;
15536;SDS011;7870;52.448;13.270;2023-02-11T03:09:50;48.70;;;33.95;;
15536;SDS011;7870;52.448;13.270;2023-02-11T03:12:20;47.22;;;34.63;;
15536;SDS011;7870;52.448;13.270;2023-02-11T03:14:48;47.05;;;34.67;;
15536;SDS011;7870;52.448;13.270;2023-02-11T03:17:16;45.45;;;34.20;;
15536;SDS011;7870;52.448;13.270;2023-02-11T03:19:44;47.22;;;36.78;;
15536;SDS011;7870;52.448;13.270;2023-02-11T03:22:14;44.10;;;34.20;;
15536;SDS011;7870;52.448;13.270;2023-02-11T03:24:43;47.10;;;35.45;;
15536;SDS011;7870;52.448;13.270;2023-02-11T03:27:16;48.95;;;35.42;;
15536;SDS011;7870;52.448;13.270;2023-02-11T03:29:51;47.42;;;34.58;;
15536;SDS011;7870;52.448;13.270;2023-02-11T03:34:57;50.10;;;37.92;;
15536;SDS011;7870;52.448;13.270;2023-02-11T03:37:31;52.03;;;35.78;;
15536;SDS011;7870;52.448;13.270;2023-02-11T03:40:11;45.80;;;36.50;;
15536;SDS011;7870;52.448;13.270;2023-02-11T03:42:40;47.03;;;35.95;;
15536;SDS011;7870;52.448;13.270;2023-02-11T03:45:10;47.83;;;36.33;;
15536;SDS011;7870;52.448;13.270;2023-02-11T03:47:38;49.97;;;37.00;;
15536;SDS011;7870;52.448;13.270;2023-02-11T03:50:07;52.75;;;36.58;;
15536;SDS011;7870;52.448;13.270;2023-02-11T03:52:36;49.63;;;36.60;;
15536;SDS011;7870;52.448;13.270;2023-02-11T03:55:08;48.83;;;38.45;;
15536;SDS011;7870;52.448;13.270;2023-02-11T03:57:37;46.92;;;36.70;;
15536;SDS011;7870;52.448;13.270;2023-02-11T04:00:04;50.05;;;36.83;;
15536;SDS011;7870;52.448;13.270;2023-02-11T04:02:37;51.50;;;39.13;;
15536;SDS011;7870;52.448;13.270;2023-02-11T04:05:04;52.53;;;38.03;;
15536;SDS011;7870;52.448;13.270;2023-02-11T04:07:32;50.00;;;37.35;;
15536;SDS011;7870;52.448;13.270;2023-02-11T04:09:59;50.85;;;37.75;;
15536;SDS011;7870;52.448;13.270;2023-02-11T04:12:25;50.47;;;38.42;;
15536;SDS011;7870;52.448;13.270;2023-02-11T04:14:52;49.75;;;37.80;;
15536;SDS011;7870;52.448;13.270;2023-02-11T04:17:18;52.25;;;39.55;;
15536;SDS011;7870;52.448;13.270;2023-02-11T04:19:45;48.42;;;40.22;;
15536;SDS011;7870;52.448;13.270;2023-02-11T04:22:12;50.90;;;38.08;;
15536;SDS011;7870;52.448;13.270;2023-02-11T04:24:38;51.30;;;39.45;;
15536;SDS011;7870;52.448;13.270;2023-02-11T04:27:05;53.17;;;38.40;;
15536;SDS011;7870;52.448;13.270;2023-02-11T04:29:31;52.38;;;38.33;;
15536;SDS011;7870;52.448;13.270;2023-02-11T04:31:58;49.70;;;39.35;;
15536;SDS011;7870;52.448;13.270;2023-02-11T04:34:25;56.47;;;40.97;;
15536;SDS011;7870;52.448;13.270;2023-02-11T04:36:51;47.85;;;37.83;;
15536;SDS011;7870;52.448;13.270;2023-02-11T04:39:18;49.78;;;38.25;;
15536;SDS011;7870;52.448;13.270;2023-02-11T04:41:44;55.08;;;41.55;;
15536;SDS011;7870;52.448;13.270;2023-02-11T04:44:11;52.50;;;40.05;;
15536;SDS011;7870;52.448;13.270;2023-02-11T04:46:37;56.75;;;40.95;;
15536;SDS011;7870;52.448;13.270;2023-02-11T04:49:04;57.83;;;42.47;;
15536;SDS011;7870;52.448;13.270;2023-02-11T04:51:31;56.08;;;40.80;;
15536;SDS011;7870;52.448;13.270;2023-02-11T04:53:57;53.83;;;39.03;;
15536;SDS011;7870;52.448;13.270;2023-02-11T04:56:24;50.70;;;40.88;;
15536;SDS011;7870;52.448;13.270;2023-02-11T04:58:50;54.55;;;39.83;;
15536;SDS011;7870;52.448;13.270;2023-02-11T05:01:17;55.42;;;43.13;;
15536;SDS011;7870;52.448;13.270;2023-02-11T05:03:43;55.42;;;41.25;;
15536;SDS011;7870;52.448;13.270;2023-02-11T05:06:10;53.97;;;42.40;;
15536;SDS011;7870;52.448;13.270;2023-02-11T05:08:37;54.72;;;40.25;;
15536;SDS011;7870;52.448;13.270;2023-02-11T05:11:03;54.08;;;42.45;;
15536;SDS011;7870;52.448;13.270;2023-02-11T05:13:30;59.55;;;42.58;;
15536;SDS011;7870;52.448;13.270;2023-02-11T05:15:57;55.33;;;42.22;;
15536;SDS011;7870;52.448;13.270;2023-02-11T05:18:23;56.67;;;43.67;;
15536;SDS011;7870;52.448;13.270;2023-02-11T05:20:50;69.85;;;44.45;;
15536;SDS011;7870;52.448;13.270;2023-02-11T05:23:16;56.42;;;42.17;;
15536;SDS011;7870;52.448;13.270;2023-02-11T05:25:43;58.80;;;45.90;;
15536;SDS011;7870;52.448;13.270;2023-02-11T05:28:10;59.83;;;43.63;;
15536;SDS011;7870;52.448;13.270;2023-02-11T05:30:36;56.78;;;44.42;;
15536;SDS011;7870;52.448;13.270;2023-02-11T05:33:03;59.22;;;45.13;;
15536;SDS011;7870;52.448;13.270;2023-02-11T05:35:29;58.72;;;46.42;;
15536;SDS011;7870;52.448;13.270;2023-02-11T05:37:56;56.47;;;44.50;;
15536;SDS011;7870;52.448;13.270;2023-02-11T05:40:23;58.97;;;45.60;;
15536;SDS011;7870;52.448;13.270;2023-02-11T05:42:49;57.97;;;43.38;;
15536;SDS011;7870;52.448;13.270;2023-02-11T05:45:16;64.22;;;46.58;;
15536;SDS011;7870;52.448;13.270;2023-02-11T05:47:42;58.08;;;45.17;;
15536;SDS011;7870;52.448;13.270;2023-02-11T05:50:09;60.38;;;47.78;;
15536;SDS011;7870;52.448;13.270;2023-02-11T05:52:35;56.03;;;42.40;;
15536;SDS011;7870;52.448;13.270;2023-02-11T05:55:02;61.67;;;47.10;;
15536;SDS011;7870;52.448;13.270;2023-02-11T05:57:29;61.25;;;43.60;;
15536;SDS011;7870;52.448;13.270;2023-02-11T05:59:55;62.70;;;46.35;;
15536;SDS011;7870;52.448;13.270;2023-02-11T06:02:22;62.15;;;46.63;;
15536;SDS011;7870;52.448;13.270;2023-02-11T06:04:48;67.80;;;48.97;;
15536;SDS011;7870;52.448;13.270;2023-02-11T06:07:15;68.13;;;48.50;;
15536;SDS011;7870;52.448;13.270;2023-02-11T06:09:42;64.60;;;48.60;;
15536;SDS011;7870;52.448;13.270;2023-02-11T06:12:09;61.13;;;47.63;;
15536;SDS011;7870;52.448;13.270;2023-02-11T06:14:36;63.38;;;48.58;;
15536;SDS011;7870;52.448;13.270;2023-02-11T06:17:03;69.05;;;50.10;;
15536;SDS011;7870;52.448;13.270;2023-02-11T06:19:31;65.35;;;49.35;;
15536;SDS011;7870;52.448;13.270;2023-02-11T06:21:58;67.15;;;48.97;;
15536;SDS011;7870;52.448;13.270;2023-02-11T06:24:30;64.15;;;50.33;;
15536;SDS011;7870;52.448;13.270;2023-02-11T06:27:17;62.70;;;48.15;;
15536;SDS011;7870;52.448;13.270;2023-02-11T06:29:44;66.85;;;50.97;;
15536;SDS011;7870;52.448;13.270;2023-02-11T06:32:11;69.93;;;48.45;;
15536;SDS011;7870;52.448;13.270;2023-02-11T06:35:00;66.28;;;47.88;;
15536;SDS011;7870;52.448;13.270;2023-02-11T06:37:27;68.88;;;49.38;;
15536;SDS011;7870;52.448;13.270;2023-02-11T06:39:54;68.78;;;50.60;;
15536;SDS011;7870;52.448;13.270;2023-02-11T06:42:21;69.00;;;51.38;;
15536;SDS011;7870;52.448;13.270;2023-02-11T06:44:48;66.05;;;49.38;;
15536;SDS011;7870;52.448;13.270;2023-02-11T06:47:14;58.70;;;44.05;;
15536;SDS011;7870;52.448;13.270;2023-02-11T06:49:41;67.50;;;51.13;;
15536;SDS011;7870;52.448;13.270;2023-02-11T06:52:08;63.85;;;49.10;;
15536;SDS011;7870;52.448;13.270;2023-02-11T06:54:35;65.05;;;49.00;;
15536;SDS011;7870;52.448;13.270;2023-02-11T06:57:02;65.45;;;48.92;;
15536;SDS011;7870;52.448;13.270;2023-02-11T06:59:29;70.43;;;52.28;;
15536;SDS011;7870;52.448;13.270;2023-02-11T07:01:56;63.30;;;48.70;;
15536;SDS011;7870;52.448;13.270;2023-02-11T07:04:23;63.85;;;49.28;;
15536;SDS011;7870;52.448;13.270;2023-02-11T07:06:49;65.15;;;48.10;;
15536;SDS011;7870;52.448;13.270;2023-02-11T07:09:16;66.40;;;50.60;;
15536;SDS011;7870;52.448;13.270;2023-02-11T07:11:42;66.65;;;49.35;;
15536;SDS011;7870;52.448;13.270;2023-02-11T07:14:09;67.32;;;49.25;;
15536;SDS011;7870;52.448;13.270;2023-02-11T07:16:38;68.43;;;50.22;;
15536;SDS011;7870;52.448;13.270;2023-02-11T07:19:05;66.55;;;50.88;;
15536;SDS011;7870;52.448;13.270;2023-02-11T07:21:32;68.85;;;51.40;;
15536;SDS011;7870;52.448;13.270;2023-02-11T07:23:59;66.00;;;49.95;;
15536;SDS011;7870;52.448;13.270;2023-02-11T07:26:27;66.95;;;49.33;;
15536;SDS011;7870;52.448;13.270;2023-02-11T07:28:56;66.05;;;50.50;;
15536;SDS011;7870;52.448;13.270;2023-02-11T07:31:24;67.82;;;49.15;;
15536;SDS011;7870;52.448;13.270;2023-02-11T07:33:52;61.55;;;46.22;;
15536;SDS011;7870;52.448;13.270;2023-02-11T07:36:20;69.03;;;49.53;;
15536;SDS011;7870;52.448;13.270;2023-02-11T07:38:47;60.65;;;48.05;;
15536;SDS011;7870;52.448;13.270;2023-02-11T07:41:15;61.75;;;44.40;;
15536;SDS011;7870;52.448;13.270;2023-02-11T07:43:43;64.35;;;45.25;;
15536;SDS011;7870;52.448;13.270;2023-02-11T07:46:11;66.38;;;46.80;;
15536;SDS011;7870;52.448;13.270;2023-02-11T07:48:40;65.50;;;47.75;;
15536;SDS011;7870;52.448;13.270;2023-02-11T07:51:11;69.80;;;51.58;;
15536;SDS011;7870;52.448;13.270;2023-02-11T07:53:42;65.15;;;49.50;;
15536;SDS011;7870;52.448;13.270;2023-02-11T07:56:09;67.60;;;48.00;;
15536;SDS011;7870;52.448;13.270;2023-02-11T07:58:36;68.18;;;49.92;;
15536;SDS011;7870;52.448;13.270;2023-02-11T08:01:04;67.32;;;48.60;;
15536;SDS011;7870;52.448;13.270;2023-02-11T08:03:32;67.72;;;48.63;;
15536;SDS011;7870;52.448;13.270;2023-02-11T08:06:03;63.35;;;47.47;;
15536;SDS011;7870;52.448;13.270;2023-02-11T08:10:57;63.05;;;47.55;;
15536;SDS011;7870;52.448;13.270;2023-02-11T08:13:24;63.85;;;46.70;;
15536;SDS011;7870;52.448;13.270;2023-02-11T08:15:52;67.43;;;48.03;;
15536;SDS011;7870;52.448;13.270;2023-02-11T08:18:18;68.63;;;46.97;;
15536;SDS011;7870;52.448;13.270;2023-02-11T08:20:45;65.10;;;49.10;;
15536;SDS011;7870;52.448;13.270;2023-02-11T08:23:12;63.05;;;47.20;;
15536;SDS011;7870;52.448;13.270;2023-02-11T08:25:38;60.58;;;45.42;;
15536;SDS011;7870;52.448;13.270;2023-02-11T08:28:05;62.38;;;47.38;;
15536;SDS011;7870;52.448;13.270;2023-02-11T08:30:32;60.33;;;46.22;;
15536;SDS011;7870;52.448;13.270;2023-02-11T08:32:59;61.97;;;44.35;;
15536;SDS011;7870;52.448;13.270;2023-02-11T08:35:26;67.32;;;46.67;;
15536;SDS011;7870;52.448;13.270;2023-02-11T08:37:53;62.25;;;46.92;;
15536;SDS011;7870;52.448;13.270;2023-02-11T08:40:19;65.60;;;47.42;;
15536;SDS011;7870;52.448;13.270;2023-02-11T08:42:46;57.83;;;38.97;;
15536;SDS011;7870;52.448;13.270;2023-02-11T08:45:12;62.70;;;45.45;;
15536;SDS011;7870;52.448;13.270;2023-02-11T08:47:39;62.70;;;45.38;;
15536;SDS011;7870;52.448;13.270;2023-02-11T08:50:06;62.97;;;45.35;;
15536;SDS011;7870;52.448;13.270;2023-02-11T08:52:32;62.47;;;44.22;;
15536;SDS011;7870;52.448;13.270;2023-02-11T08:54:59;56.22;;;42.53;;
15536;SDS011;7870;52.448;13.270;2023-02-11T08:57:26;64.57;;;46.33;;
15536;SDS011;7870;52.448;13.270;2023-02-11T08:59:52;59.50;;;43.00;;
15536;SDS011;7870;52.448;13.270;2023-02-11T09:02:19;63.47;;;45.25;;
15536;SDS011;7870;52.448;13.270;2023-02-11T09:04:46;63.20;;;44.63;;
15536;SDS011;7870;52.448;13.270;2023-02-11T09:07:12;61.90;;;46.15;;
15536;SDS011;7870;52.448;13.270;2023-02-11T09:09:39;63.25;;;46.15;;
15536;SDS011;7870;52.448;13.270;2023-02-11T09:12:05;58.63;;;44.97;;
15536;SDS011;7870;52.448;13.270;2023-02-11T09:14:32;60.83;;;44.10;;
15536;SDS011;7870;52.448;13.270;2023-02-11T09:16:59;56.70;;;43.10;;
15536;SDS011;7870;52.448;13.270;2023-02-11T09:19:26;59.08;;;45.20;;
15536;SDS011;7870;52.448;13.270;2023-02-11T09:21:52;54.83;;;42.28;;
15536;SDS011;7870;52.448;13.270;2023-02-11T09:24:19;58.85;;;47.00;;
15536;SDS011;7870;52.448;13.270;2023-02-11T09:26:45;60.13;;;43.83;;
15536;SDS011;7870;52.448;13.270;2023-02-11T09:29:12;57.05;;;44.42;;
15536;SDS011;7870;52.448;13.270;2023-02-11T09:31:38;55.95;;;41.63;;
15536;SDS011;7870;52.448;13.270;2023-02-11T09:34:05;57.30;;;42.95;;
15536;SDS011;7870;52.448;13.270;2023-02-11T09:36:33;59.05;;;43.63;;
15536;SDS011;7870;52.448;13.270;2023-02-11T09:39:03;57.28;;;42.53;;
15536;SDS011;7870;52.448;13.270;2023-02-11T09:41:41;57.95;;;41.45;;
15536;SDS011;7870;52.448;13.270;2023-02-11T09:44:16;53.78;;;41.03;;
15536;SDS011;7870;52.448;13.270;2023-02-11T09:46:46;50.88;;;41.08;;
15536;SDS011;7870;52.448;13.270;2023-02-11T09:49:19;53.05;;;40.38;;
15536;SDS011;7870;52.448;13.270;2023-02-11T09:51:53;51.58;;;40.03;;
15536;SDS011;7870;52.448;13.270;2023-02-11T09:54:34;54.72;;;43.45;;
15536;SDS011;7870;52.448;13.270;2023-02-11T09:57:07;47.63;;;39.13;;
15536;SDS011;7870;52.448;13.270;2023-02-11T09:59:53;48.90;;;39.72;;
15536;SDS011;7870;52.448;13.270;2023-02-11T10:02:29;50.35;;;38.83;;
15536;SDS011;7870;52.448;13.270;2023-02-11T10:07:47;47.58;;;38.35;;
15536;SDS011;7870;52.448;13.270;2023-02-11T10:10:30;52.17;;;40.17;;
15536;SDS011;7870;52.448;13.270;2023-02-11T10:13:15;56.38;;;42.65;;
15536;SDS011;7870;52.448;13.270;2023-02-11T10:18:57;52.55;;;39.78;;
15536;SDS011;7870;52.448;13.270;2023-02-11T10:24:27;54.00;;;37.53;;
15536;SDS011;7870;52.448;13.270;2023-02-11T10:26:54;53.55;;;41.00;;
15536;SDS011;7870;52.448;13.270;2023-02-11T10:29:31;51.42;;;39.92;;
15536;SDS011;7870;52.448;13.270;2023-02-11T10:32:00;57.35;;;41.72;;
15536;SDS011;7870;52.448;13.270;2023-02-11T10:34:31;58.78;;;41.45;;
15536;SDS011;7870;52.448;13.270;2023-02-11T10:36:58;62.90;;;45.13;;
15536;SDS011;7870;52.448;13.270;2023-02-11T10:39:25;51.33;;;41.90;;
15536;SDS011;7870;52.448;13.270;2023-02-11T10:41:53;56.35;;;41.40;;
15536;SDS011;7870;52.448;13.270;2023-02-11T10:47:13;57.80;;;42.35;;
15536;SDS011;7870;52.448;13.270;2023-02-11T10:49:44;58.50;;;42.45;;
15536;SDS011;7870;52.448;13.270;2023-02-11T10:52:12;56.58;;;39.50;;
15536;SDS011;7870;52.448;13.270;2023-02-11T10:57:27;51.47;;;38.85;;
15536;SDS011;7870;52.448;13.270;2023-02-11T10:59:57;58.40;;;42.35;;
15536;SDS011;7870;52.448;13.270;2023-02-11T11:02:29;54.63;;;40.53;;
15536;SDS011;7870;52.448;13.270;2023-02-11T11:05:00;54.83;;;42.75;;
15536;SDS011;7870;52.448;13.270;2023-02-11T11:07:30;55.10;;;44.33;;
15536;SDS011;7870;52.448;13.270;2023-02-11T11:13:34;55.25;;;40.67;;
15536;SDS011;7870;52.448;13.270;2023-02-11T11:16:06;52.20;;;40.90;;
15536;SDS011;7870;52.448;13.270;2023-02-11T11:18:40;59.00;;;41.80;;
15536;SDS011;7870;52.448;13.270;2023-02-11T11:21:13;56.80;;;35.97;;
15536;SDS011;7870;52.448;13.270;2023-02-11T11:23:56;53.35;;;40.17;;
15536;SDS011;7870;52.448;13.270;2023-02-11T11:26:28;53.70;;;40.75;;
15536;SDS011;7870;52.448;13.270;2023-02-11T11:31:34;53.03;;;37.33;;
15536;SDS011;7870;52.448;13.270;2023-02-11T11:34:05;56.33;;;41.28;;
15536;SDS011;7870;52.448;13.270;2023-02-11T11:36:44;56.42;;;39.22;;
15536;SDS011;7870;52.448;13.270;2023-02-11T11:41:54;52.70;;;38.28;;
15536;SDS011;7870;52.448;13.270;2023-02-11T11:44:30;53.55;;;39.50;;
15536;SDS011;7870;52.448;13.270;2023-02-11T11:47:17;54.35;;;35.72;;
15536;SDS011;7870;52.448;13.270;2023-02-11T11:52:43;47.35;;;35.88;;
15536;SDS011;7870;52.448;13.270;2023-02-11T11:55:26;55.20;;;38.00;;
15536;SDS011;7870;52.448;13.270;2023-02-11T11:57:56;51.47;;;37.65;;
15536;SDS011;7870;52.448;13.270;2023-02-11T12:00:30;49.58;;;35.38;;
15536;SDS011;7870;52.448;13.270;2023-02-11T12:03:03;49.55;;;37.33;;
15536;SDS011;7870;52.448;13.270;2023-02-11T12:05:44;48.47;;;36.75;;
15536;SDS011;7870;52.448;13.270;2023-02-11T12:08:22;46.08;;;30.17;;
15536;SDS011;7870;52.448;13.270;2023-02-11T12:13:45;46.47;;;30.95;;
15536;SDS011;7870;52.448;13.270;2023-02-11T12:16:44;40.40;;;27.20;;
15536;SDS011;7870;52.448;13.270;2023-02-11T12:19:46;40.55;;;29.23;;
15536;SDS011;7870;52.448;13.270;2023-02-11T12:25:28;39.60;;;28.48;;
15536;SDS011;7870;52.448;13.270;2023-02-11T12:30:47;38.55;;;28.25;;
15536;SDS011;7870;52.448;13.270;2023-02-11T12:33:41;40.38;;;29.77;;
15536;SDS011;7870;52.448;13.270;2023-02-11T12:39:20;33.80;;;27.02;;
15536;SDS011;7870;52.448;13.270;2023-02-11T12:45:04;37.78;;;26.83;;
15536;SDS011;7870;52.448;13.270;2023-02-11T12:50:29;30.60;;;24.73;;
15536;SDS011;7870;52.448;13.270;2023-02-11T12:53:35;35.70;;;25.85;;
15536;SDS011;7870;52.448;13.270;2023-02-11T12:56:23;30.85;;;25.02;;
15536;SDS011;7870;52.448;13.270;2023-02-11T12:58:51;36.33;;;25.52;;
15536;SDS011;7870;52.448;13.270;2023-02-11T13:01:35;31.75;;;24.30;;
15536;SDS011;7870;52.448;13.270;2023-02-11T13:06:43;31.50;;;24.95;;
15536;SDS011;7870;52.448;13.270;2023-02-11T13:09:12;29.42;;;24.52;;
15536;SDS011;7870;52.448;13.270;2023-02-11T13:11:45;28.88;;;22.40;;
15536;SDS011;7870;52.448;13.270;2023-02-11T13:14:22;31.88;;;23.42;;
15536;SDS011;7870;52.448;13.270;2023-02-11T13:16:54;30.70;;;22.52;;
15536;SDS011;7870;52.448;13.270;2023-02-11T13:19:31;31.67;;;23.30;;
15536;SDS011;7870;52.448;13.270;2023-02-11T13:27:41;31.15;;;24.70;;
15536;SDS011;7870;52.448;13.270;2023-02-11T13:30:33;30.17;;;25.13;;
15536;SDS011;7870;52.448;13.270;2023-02-11T13:33:04;33.25;;;24.55;;
15536;SDS011;7870;52.448;13.270;2023-02-11T13:38:22;33.15;;;25.00;;
15536;SDS011;7870;52.448;13.270;2023-02-11T13:41:09;31.50;;;24.30;;
15536;SDS011;7870;52.448;13.270;2023-02-11T13:43:41;30.90;;;23.88;;
15536;SDS011;7870;52.448;13.270;2023-02-11T13:46:12;29.98;;;24.15;;
15536;SDS011;7870;52.448;13.270;2023-02-11T13:48:49;34.60;;;26.30;;
15536;SDS011;7870;52.448;13.270;2023-02-11T13:51:32;29.35;;;24.20;;
15536;SDS011;7870;52.448;13.270;2023-02-11T13:54:01;28.02;;;23.45;;
15536;SDS011;7870;52.448;13.270;2023-02-11T13:56:29;32.05;;;22.98;;
15536;SDS011;7870;52.448;13.270;2023-02-11T13:59:04;28.13;;;22.88;;
15536;SDS011;7870;52.448;13.270;2023-02-11T14:01:39;32.42;;;25.02;;
15536;SDS011;7870;52.448;13.270;2023-02-11T14:05:00;31.30;;;25.45;;
15536;SDS011;7870;52.448;13.270;2023-02-11T14:11:02;30.63;;;23.73;;
15536;SDS011;7870;52.448;13.270;2023-02-11T14:16:17;32.35;;;24.92;;
15536;SDS011;7870;52.448;13.270;2023-02-11T14:19:03;34.83;;;25.00;;
15536;SDS011;7870;52.448;13.270;2023-02-11T14:21:34;29.40;;;24.58;;
15536;SDS011;7870;52.448;13.270;2023-02-11T14:29:15;29.58;;;22.50;;
15536;SDS011;7870;52.448;13.270;2023-02-11T14:31:54;31.90;;;24.15;;
15536;SDS011;7870;52.448;13.270;2023-02-11T14:37:54;26.90;;;23.33;;
15536;SDS011;7870;52.448;13.270;2023-02-11T14:40:34;27.65;;;22.85;;
15536;SDS011;7870;52.448;13.270;2023-02-11T14:43:13;30.48;;;22.48;;
15536;SDS011;7870;52.448;13.270;2023-02-11T14:45:43;32.30;;;22.92;;
15536;SDS011;7870;52.448;13.270;2023-02-11T14:48:15;29.55;;;24.65;;
15536;SDS011;7870;52.448;13.270;2023-02-11T14:50:44;32.65;;;26.10;;
15536;SDS011;7870;52.448;13.270;2023-02-11T14:53:16;33.13;;;25.00;;
15536;SDS011;7870;52.448;13.270;2023-02-11T14:55:48;36.78;;;25.65;;
15536;SDS011;7870;52.448;13.270;2023-02-11T14:58:21;33.03;;;25.42;;
15536;SDS011;7870;52.448;13.270;2023-02-11T15:06:17;34.00;;;23.38;;
15536;SDS011;7870;52.448;13.270;2023-02-11T15:08:51;32.08;;;24.83;;
15536;SDS011;7870;52.448;13.270;2023-02-11T15:11:20;40.42;;;27.52;;
15536;SDS011;7870;52.448;13.270;2023-02-11T15:13:48;34.38;;;26.20;;
15536;SDS011;7870;52.448;13.270;2023-02-11T15:16:16;40.63;;;27.45;;
15536;SDS011;7870;52.448;13.270;2023-02-11T15:18:47;30.55;;;24.17;;
15536;SDS011;7870;52.448;13.270;2023-02-11T15:21:19;31.73;;;23.77;;
15536;SDS011;7870;52.448;13.270;2023-02-11T15:23:56;34.03;;;25.90;;
15536;SDS011;7870;52.448;13.270;2023-02-11T15:26:28;28.85;;;23.45;;
15536;SDS011;7870;52.448;13.270;2023-02-11T15:28:54;33.30;;;24.40;;
15536;SDS011;7870;52.448;13.270;2023-02-11T15:31:23;30.77;;;23.40;;
15536;SDS011;7870;52.448;13.270;2023-02-11T15:33:51;29.02;;;24.00;;
15536;SDS011;7870;52.448;13.270;2023-02-11T15:36:19;28.02;;;20.92;;
15536;SDS011;7870;52.448;13.270;2023-02-11T15:42:16;26.02;;;21.75;;
15536;SDS011;7870;52.448;13.270;2023-02-11T15:44:42;26.23;;;20.90;;
15536;SDS011;7870;52.448;13.270;2023-02-11T15:47:16;28.08;;;22.88;;
15536;SDS011;7870;52.448;13.270;2023-02-11T15:49:46;26.33;;;20.65;;
15536;SDS011;7870;52.448;13.270;2023-02-11T15:52:14;29.13;;;22.15;;
15536;SDS011;7870;52.448;13.270;2023-02-11T15:54:48;28.15;;;21.98;;
15536;SDS011;7870;52.448;13.270;2023-02-11T15:57:15;27.48;;;21.33;;
15536;SDS011;7870;52.448;13.270;2023-02-11T15:59:47;26.50;;;21.75;;
15536;SDS011;7870;52.448;13.270;2023-02-11T16:02:25;23.67;;;19.67;;
15536;SDS011;7870;52.448;13.270;2023-02-11T16:04:57;23.15;;;19.35;;
15536;SDS011;7870;52.448;13.270;2023-02-11T16:07:39;24.02;;;19.55;;
15536;SDS011;7870;52.448;13.270;2023-02-11T16:10:20;27.60;;;20.83;;
15536;SDS011;7870;52.448;13.270;2023-02-11T16:12:55;24.20;;;17.92;;
15536;SDS011;7870;52.448;13.270;2023-02-11T16:17:56;26.63;;;20.80;;
15536;SDS011;7870;52.448;13.270;2023-02-11T16:20:23;25.17;;;19.65;;
15536;SDS011;7870;52.448;13.270;2023-02-11T16:22:49;21.30;;;17.58;;
15536;SDS011;7870;52.448;13.270;2023-02-11T16:25:17;19.75;;;16.10;;
15536;SDS011;7870;52.448;13.270;2023-02-11T16:27:49;18.52;;;14.73;;
15536;SDS011;7870;52.448;13.270;2023-02-11T16:30:25;19.45;;;16.48;;
15536;SDS011;7870;52.448;13.270;2023-02-11T16:32:54;19.40;;;15.40;;
15536;SDS011;7870;52.448;13.270;2023-02-11T16:35:21;17.98;;;15.27;;
15536;SDS011;7870;52.448;13.270;2023-02-11T16:37:47;18.73;;;15.80;;